sensor_id;sensor_type;location;lat;lon;timestamp;temperature;humidity
44767;DHT22;30487;48.716;9.272;2023-06-01T00:01:49;19.60;61.60
44767;DHT22;30487;48.716;9.272;2023-06-01T00:04:15;19.60;61.90
44767;DHT22;30487;48.716;9.272;2023-06-01T00:06:42;19.60;61.90
44767;DHT22;30487;48.716;9.272;2023-06-01T00:09:08;19.60;62.60
44767;DHT22;30487;48.716;9.272;2023-06-01T00:11:34;19.50;62.00
44767;DHT22;30487;48.716;9.272;2023-06-01T00:13:59;19.50;62.30
44767;DHT22;30487;48.716;9.272;2023-06-01T00:16:26;19.40;62.10
44767;DHT22;30487;48.716;9.272;2023-06-01T00:18:53;19.40;62.40
44767;DHT22;30487;48.716;9.272;2023-06-01T00:21:21;19.30;62.10
44767;DHT22;30487;48.716;9.272;2023-06-01T00:23:47;19.30;62.90
44767;DHT22;30487;48.716;9.272;2023-06-01T00:26:13;19.30;63.00
44767;DHT22;30487;48.716;9.272;2023-06-01T00:28:39;19.30;63.10
44767;DHT22;30487;48.716;9.272;2023-06-01T00:31:04;19.20;63.30
44767;DHT22;30487;48.716;9.272;2023-06-01T00:33:30;19.20;63.40
44767;DHT22;30487;48.716;9.272;2023-06-01T00:35:56;19.20;62.90
44767;DHT22;30487;48.716;9.272;2023-06-01T00:38:22;19.20;62.60
44767;DHT22;30487;48.716;9.272;2023-06-01T00:40:47;19.20;62.60
44767;DHT22;30487;48.716;9.272;2023-06-01T00:43:17;19.20;62.70
44767;DHT22;30487;48.716;9.272;2023-06-01T00:45:42;19.10;62.70
44767;DHT22;30487;48.716;9.272;2023-06-01T00:48:08;19.10;62.80
44767;DHT22;30487;48.716;9.272;2023-06-01T00:50:34;19.10;62.90
44767;DHT22;30487;48.716;9.272;2023-06-01T00:53:01;19.00;63.30
44767;DHT22;30487;48.716;9.272;2023-06-01T00:55:27;18.80;63.40
44767;DHT22;30487;48.716;9.272;2023-06-01T00:57:54;18.70;63.70
44767;DHT22;30487;48.716;9.272;2023-06-01T01:00:21;18.70;64.30
44767;DHT22;30487;48.716;9.272;2023-06-01T01:02:48;18.60;64.30
44767;DHT22;30487;48.716;9.272;2023-06-01T01:05:15;18.60;64.30
44767;DHT22;30487;48.716;9.272;2023-06-01T01:10:53;18.70;63.80
44767;DHT22;30487;48.716;9.272;2023-06-01T01:13:50;18.50;63.40
44767;DHT22;30487;48.716;9.272;2023-06-01T01:16:26;18.50;63.20
44767;DHT22;30487;48.716;9.272;2023-06-01T01:21:59;18.20;63.50
44767;DHT22;30487;48.716;9.272;2023-06-01T01:27:30;17.90;63.60
44767;DHT22;30487;48.716;9.272;2023-06-01T01:30:02;17.80;63.90
44767;DHT22;30487;48.716;9.272;2023-06-01T01:32:31;17.70;64.10
44767;DHT22;30487;48.716;9.272;2023-06-01T01:34:58;17.60;64.40
44767;DHT22;30487;48.716;9.272;2023-06-01T01:37:25;17.60;64.30
44767;DHT22;30487;48.716;9.272;2023-06-01T01:39:51;17.60;64.40
44767;DHT22;30487;48.716;9.272;2023-06-01T01:42:16;17.60;64.30
44767;DHT22;30487;48.716;9.272;2023-06-01T01:44:43;17.50;64.30
44767;DHT22;30487;48.716;9.272;2023-06-01T01:49:43;17.40;64.80
44767;DHT22;30487;48.716;9.272;2023-06-01T01:52:25;17.50;64.60
44767;DHT22;30487;48.716;9.272;2023-06-01T01:54:52;17.50;64.60
44767;DHT22;30487;48.716;9.272;2023-06-01T01:57:19;17.50;64.50
44767;DHT22;30487;48.716;9.272;2023-06-01T01:59:46;17.50;65.10
44767;DHT22;30487;48.716;9.272;2023-06-01T02:02:12;17.40;64.70
44767;DHT22;30487;48.716;9.272;2023-06-01T02:04:44;17.40;64.90
44767;DHT22;30487;48.716;9.272;2023-06-01T02:07:13;17.40;64.80
44767;DHT22;30487;48.716;9.272;2023-06-01T02:09:39;17.40;64.90
44767;DHT22;30487;48.716;9.272;2023-06-01T02:12:06;17.30;65.20
44767;DHT22;30487;48.716;9.272;2023-06-01T02:14:32;17.30;64.90
44767;DHT22;30487;48.716;9.272;2023-06-01T02:16:58;17.30;64.80
44767;DHT22;30487;48.716;9.272;2023-06-01T02:19:26;17.30;65.20
44767;DHT22;30487;48.716;9.272;2023-06-01T02:21:52;17.40;65.40
44767;DHT22;30487;48.716;9.272;2023-06-01T02:24:18;17.40;65.50
44767;DHT22;30487;48.716;9.272;2023-06-01T02:26:45;17.50;65.00
44767;DHT22;30487;48.716;9.272;2023-06-01T02:29:12;17.50;64.80
44767;DHT22;30487;48.716;9.272;2023-06-01T02:31:38;17.50;65.00
44767;DHT22;30487;48.716;9.272;2023-06-01T02:34:04;17.60;64.90
44767;DHT22;30487;48.716;9.272;2023-06-01T02:36:30;17.60;64.80
44767;DHT22;30487;48.716;9.272;2023-06-01T02:38:57;17.50;64.90
44767;DHT22;30487;48.716;9.272;2023-06-01T02:41:23;17.50;65.10
44767;DHT22;30487;48.716;9.272;2023-06-01T02:43:49;17.30;65.50
44767;DHT22;30487;48.716;9.272;2023-06-01T02:46:18;17.20;66.50
44767;DHT22;30487;48.716;9.272;2023-06-01T02:48:44;17.20;67.10
44767;DHT22;30487;48.716;9.272;2023-06-01T02:51:10;17.10;67.50
44767;DHT22;30487;48.716;9.272;2023-06-01T02:53:35;17.00;67.60
44767;DHT22;30487;48.716;9.272;2023-06-01T02:56:01;17.00;68.00
44767;DHT22;30487;48.716;9.272;2023-06-01T02:58:27;17.00;67.60
44767;DHT22;30487;48.716;9.272;2023-06-01T03:00:55;16.90;67.40
44767;DHT22;30487;48.716;9.272;2023-06-01T03:03:20;16.70;67.30
44767;DHT22;30487;48.716;9.272;2023-06-01T03:05:46;16.70;67.50
44767;DHT22;30487;48.716;9.272;2023-06-01T03:08:13;16.60;68.10
44767;DHT22;30487;48.716;9.272;2023-06-01T03:10:39;16.50;68.30
44767;DHT22;30487;48.716;9.272;2023-06-01T03:13:04;16.60;68.40
44767;DHT22;30487;48.716;9.272;2023-06-01T03:15:30;16.60;68.10
44767;DHT22;30487;48.716;9.272;2023-06-01T03:17:55;16.70;67.90
44767;DHT22;30487;48.716;9.272;2023-06-01T03:20:21;16.70;67.70
44767;DHT22;30487;48.716;9.272;2023-06-01T03:22:47;16.70;67.50
44767;DHT22;30487;48.716;9.272;2023-06-01T03:25:13;16.60;68.10
44767;DHT22;30487;48.716;9.272;2023-06-01T03:27:39;16.50;68.60
44767;DHT22;30487;48.716;9.272;2023-06-01T03:30:07;16.40;68.80
44767;DHT22;30487;48.716;9.272;2023-06-01T03:32:37;16.40;69.00
44767;DHT22;30487;48.716;9.272;2023-06-01T03:35:04;16.50;69.40
44767;DHT22;30487;48.716;9.272;2023-06-01T03:37:29;16.60;69.40
44767;DHT22;30487;48.716;9.272;2023-06-01T03:39:55;16.60;69.30
44767;DHT22;30487;48.716;9.272;2023-06-01T03:42:21;16.60;69.30
44767;DHT22;30487;48.716;9.272;2023-06-01T03:44:46;16.50;69.20
44767;DHT22;30487;48.716;9.272;2023-06-01T03:47:12;16.50;69.40
44767;DHT22;30487;48.716;9.272;2023-06-01T03:49:39;16.50;69.60
44767;DHT22;30487;48.716;9.272;2023-06-01T03:52:05;16.60;69.60
44767;DHT22;30487;48.716;9.272;2023-06-01T03:54:31;16.60;69.90
44767;DHT22;30487;48.716;9.272;2023-06-01T03:56:56;16.70;69.80
44767;DHT22;30487;48.716;9.272;2023-06-01T03:59:22;16.70;69.60
44767;DHT22;30487;48.716;9.272;2023-06-01T04:01:48;16.40;69.30
44767;DHT22;30487;48.716;9.272;2023-06-01T04:04:14;16.10;70.00
44767;DHT22;30487;48.716;9.272;2023-06-01T04:06:42;15.70;70.80
44767;DHT22;30487;48.716;9.272;2023-06-01T04:09:10;15.70;71.70
44767;DHT22;30487;48.716;9.272;2023-06-01T04:11:39;15.80;71.40
44767;DHT22;30487;48.716;9.272;2023-06-01T04:14:05;15.70;71.20
44767;DHT22;30487;48.716;9.272;2023-06-01T04:16:31;15.70;71.60
44767;DHT22;30487;48.716;9.272;2023-06-01T04:18:56;15.80;71.70
44767;DHT22;30487;48.716;9.272;2023-06-01T04:21:22;15.90;71.50
44767;DHT22;30487;48.716;9.272;2023-06-01T04:23:48;16.10;71.50
44767;DHT22;30487;48.716;9.272;2023-06-01T04:26:15;16.20;71.20
44767;DHT22;30487;48.716;9.272;2023-06-01T04:28:40;16.30;70.90
44767;DHT22;30487;48.716;9.272;2023-06-01T04:31:10;16.40;70.60
44767;DHT22;30487;48.716;9.272;2023-06-01T04:33:43;16.60;70.60
44767;DHT22;30487;48.716;9.272;2023-06-01T04:36:13;16.70;69.80
44767;DHT22;30487;48.716;9.272;2023-06-01T04:38:42;16.70;70.60
44767;DHT22;30487;48.716;9.272;2023-06-01T04:41:11;16.70;70.30
44767;DHT22;30487;48.716;9.272;2023-06-01T04:43:37;16.70;70.70
44767;DHT22;30487;48.716;9.272;2023-06-01T04:46:06;16.60;70.70
44767;DHT22;30487;48.716;9.272;2023-06-01T04:48:33;16.60;71.30
44767;DHT22;30487;48.716;9.272;2023-06-01T04:50:58;16.50;70.60
44767;DHT22;30487;48.716;9.272;2023-06-01T04:53:25;16.50;71.30
44767;DHT22;30487;48.716;9.272;2023-06-01T04:55:50;16.50;72.20
44767;DHT22;30487;48.716;9.272;2023-06-01T04:58:17;16.40;72.30
44767;DHT22;30487;48.716;9.272;2023-06-01T05:00:42;16.30;72.70
44767;DHT22;30487;48.716;9.272;2023-06-01T05:03:08;16.10;72.50
44767;DHT22;30487;48.716;9.272;2023-06-01T05:05:33;15.90;73.40
44767;DHT22;30487;48.716;9.272;2023-06-01T05:07:59;15.80;74.30
44767;DHT22;30487;48.716;9.272;2023-06-01T05:10:25;16.00;74.70
44767;DHT22;30487;48.716;9.272;2023-06-01T05:12:50;16.10;74.30
44767;DHT22;30487;48.716;9.272;2023-06-01T05:15:16;16.30;74.70
44767;DHT22;30487;48.716;9.272;2023-06-01T05:17:42;16.50;75.20
44767;DHT22;30487;48.716;9.272;2023-06-01T05:20:09;16.60;74.60
44767;DHT22;30487;48.716;9.272;2023-06-01T05:22:36;16.70;74.30
44767;DHT22;30487;48.716;9.272;2023-06-01T05:25:03;16.80;73.50
44767;DHT22;30487;48.716;9.272;2023-06-01T05:27:30;16.80;73.70
44767;DHT22;30487;48.716;9.272;2023-06-01T05:29:56;16.80;74.40
44767;DHT22;30487;48.716;9.272;2023-06-01T05:32:21;16.80;73.30
44767;DHT22;30487;48.716;9.272;2023-06-01T05:34:47;16.60;73.70
44767;DHT22;30487;48.716;9.272;2023-06-01T05:37:13;16.60;73.50
44767;DHT22;30487;48.716;9.272;2023-06-01T05:39:38;16.50;74.10
44767;DHT22;30487;48.716;9.272;2023-06-01T05:42:04;16.50;74.50
44767;DHT22;30487;48.716;9.272;2023-06-01T05:44:31;16.40;73.60
44767;DHT22;30487;48.716;9.272;2023-06-01T05:46:57;16.50;74.40
44767;DHT22;30487;48.716;9.272;2023-06-01T05:49:22;16.50;75.30
44767;DHT22;30487;48.716;9.272;2023-06-01T05:51:48;16.50;75.60
44767;DHT22;30487;48.716;9.272;2023-06-01T05:54:14;16.60;76.10
44767;DHT22;30487;48.716;9.272;2023-06-01T05:56:39;16.80;77.50
44767;DHT22;30487;48.716;9.272;2023-06-01T05:59:08;17.10;76.90
44767;DHT22;30487;48.716;9.272;2023-06-01T06:01:34;17.20;76.90
44767;DHT22;30487;48.716;9.272;2023-06-01T06:04:01;17.40;76.20
44767;DHT22;30487;48.716;9.272;2023-06-01T06:06:27;17.40;73.60
44767;DHT22;30487;48.716;9.272;2023-06-01T06:08:52;17.40;72.20
44767;DHT22;30487;48.716;9.272;2023-06-01T06:11:18;17.40;72.90
44767;DHT22;30487;48.716;9.272;2023-06-01T06:13:44;17.40;73.50
44767;DHT22;30487;48.716;9.272;2023-06-01T06:16:10;17.40;73.00
44767;DHT22;30487;48.716;9.272;2023-06-01T06:18:35;17.50;72.60
44767;DHT22;30487;48.716;9.272;2023-06-01T06:21:01;17.50;71.80
44767;DHT22;30487;48.716;9.272;2023-06-01T06:23:26;17.50;72.00
44767;DHT22;30487;48.716;9.272;2023-06-01T06:25:52;17.50;71.40
44767;DHT22;30487;48.716;9.272;2023-06-01T06:28:18;17.60;71.90
44767;DHT22;30487;48.716;9.272;2023-06-01T06:30:44;17.70;71.10
44767;DHT22;30487;48.716;9.272;2023-06-01T06:33:09;17.80;72.20
44767;DHT22;30487;48.716;9.272;2023-06-01T06:35:35;17.80;72.40
44767;DHT22;30487;48.716;9.272;2023-06-01T06:38:02;18.00;72.20
44767;DHT22;30487;48.716;9.272;2023-06-01T06:40:28;18.00;71.70
44767;DHT22;30487;48.716;9.272;2023-06-01T06:42:53;18.10;71.20
44767;DHT22;30487;48.716;9.272;2023-06-01T06:45:19;18.20;71.30
44767;DHT22;30487;48.716;9.272;2023-06-01T06:47:44;18.30;71.60
44767;DHT22;30487;48.716;9.272;2023-06-01T06:50:12;18.40;70.90
44767;DHT22;30487;48.716;9.272;2023-06-01T06:52:38;18.50;70.50
44767;DHT22;30487;48.716;9.272;2023-06-01T06:55:04;18.70;70.30
44767;DHT22;30487;48.716;9.272;2023-06-01T06:57:29;18.90;70.30
44767;DHT22;30487;48.716;9.272;2023-06-01T06:59:55;19.00;69.50
44767;DHT22;30487;48.716;9.272;2023-06-01T07:02:21;19.10;69.00
44767;DHT22;30487;48.716;9.272;2023-06-01T07:04:47;19.20;68.80
44767;DHT22;30487;48.716;9.272;2023-06-01T07:07:14;19.40;68.90
44767;DHT22;30487;48.716;9.272;2023-06-01T07:09:39;19.50;68.30
44767;DHT22;30487;48.716;9.272;2023-06-01T07:12:06;19.60;68.40
44767;DHT22;30487;48.716;9.272;2023-06-01T07:14:31;19.70;68.50
44767;DHT22;30487;48.716;9.272;2023-06-01T07:16:57;19.90;68.50
44767;DHT22;30487;48.716;9.272;2023-06-01T07:19:22;19.90;68.10
44767;DHT22;30487;48.716;9.272;2023-06-01T07:21:49;19.90;68.00
44767;DHT22;30487;48.716;9.272;2023-06-01T07:24:18;20.00;68.20
44767;DHT22;30487;48.716;9.272;2023-06-01T07:26:44;20.00;68.20
44767;DHT22;30487;48.716;9.272;2023-06-01T07:29:10;20.00;68.30
44767;DHT22;30487;48.716;9.272;2023-06-01T07:31:37;20.10;68.30
44767;DHT22;30487;48.716;9.272;2023-06-01T07:34:04;20.20;68.40
44767;DHT22;30487;48.716;9.272;2023-06-01T07:36:30;20.30;67.60
44767;DHT22;30487;48.716;9.272;2023-06-01T07:38:58;20.40;67.70
44767;DHT22;30487;48.716;9.272;2023-06-01T07:41:24;20.50;67.50
44767;DHT22;30487;48.716;9.272;2023-06-01T07:43:50;20.60;67.20
44767;DHT22;30487;48.716;9.272;2023-06-01T07:46:16;20.70;67.30
44767;DHT22;30487;48.716;9.272;2023-06-01T07:48:42;20.90;67.60
44767;DHT22;30487;48.716;9.272;2023-06-01T07:51:07;21.00;67.50
44767;DHT22;30487;48.716;9.272;2023-06-01T07:53:33;21.10;67.20
44767;DHT22;30487;48.716;9.272;2023-06-01T07:55:59;21.20;66.20
44767;DHT22;30487;48.716;9.272;2023-06-01T07:58:24;21.30;66.70
44767;DHT22;30487;48.716;9.272;2023-06-01T08:00:50;21.40;66.40
44767;DHT22;30487;48.716;9.272;2023-06-01T08:03:16;21.60;65.30
44767;DHT22;30487;48.716;9.272;2023-06-01T08:05:41;21.70;65.60
44767;DHT22;30487;48.716;9.272;2023-06-01T08:08:08;21.90;65.50
44767;DHT22;30487;48.716;9.272;2023-06-01T08:10:34;22.00;63.70
44767;DHT22;30487;48.716;9.272;2023-06-01T08:13:00;22.00;64.30
44767;DHT22;30487;48.716;9.272;2023-06-01T08:15:25;22.20;63.80
44767;DHT22;30487;48.716;9.272;2023-06-01T08:17:51;22.40;63.90
44767;DHT22;30487;48.716;9.272;2023-06-01T08:20:17;22.40;63.20
44767;DHT22;30487;48.716;9.272;2023-06-01T08:22:51;22.50;64.00
44767;DHT22;30487;48.716;9.272;2023-06-01T08:25:17;22.60;64.00
44767;DHT22;30487;48.716;9.272;2023-06-01T08:27:43;22.70;64.00
44767;DHT22;30487;48.716;9.272;2023-06-01T08:30:09;22.90;63.50
44767;DHT22;30487;48.716;9.272;2023-06-01T08:32:35;23.00;62.70
44767;DHT22;30487;48.716;9.272;2023-06-01T08:35:00;23.00;62.30
44767;DHT22;30487;48.716;9.272;2023-06-01T08:37:26;23.20;62.20
44767;DHT22;30487;48.716;9.272;2023-06-01T08:39:52;23.20;62.90
44767;DHT22;30487;48.716;9.272;2023-06-01T08:42:25;23.40;61.90
44767;DHT22;30487;48.716;9.272;2023-06-01T08:44:54;23.50;61.90
44767;DHT22;30487;48.716;9.272;2023-06-01T08:47:22;23.60;62.00
44767;DHT22;30487;48.716;9.272;2023-06-01T08:49:50;23.80;61.60
44767;DHT22;30487;48.716;9.272;2023-06-01T08:52:19;24.00;61.60
44767;DHT22;30487;48.716;9.272;2023-06-01T08:54:48;24.20;61.20
44767;DHT22;30487;48.716;9.272;2023-06-01T08:57:14;24.30;61.10
44767;DHT22;30487;48.716;9.272;2023-06-01T08:59:41;24.40;60.50
44767;DHT22;30487;48.716;9.272;2023-06-01T09:02:08;24.30;60.10
44767;DHT22;30487;48.716;9.272;2023-06-01T09:04:35;24.40;59.50
44767;DHT22;30487;48.716;9.272;2023-06-01T09:07:07;24.50;59.50
44767;DHT22;30487;48.716;9.272;2023-06-01T09:09:33;24.50;59.60
44767;DHT22;30487;48.716;9.272;2023-06-01T09:14:50;24.40;60.00
44767;DHT22;30487;48.716;9.272;2023-06-01T09:17:25;24.60;60.10
44767;DHT22;30487;48.716;9.272;2023-06-01T09:19:54;24.60;60.80
44767;DHT22;30487;48.716;9.272;2023-06-01T09:22:23;24.70;61.50
44767;DHT22;30487;48.716;9.272;2023-06-01T09:24:56;24.90;61.40
44767;DHT22;30487;48.716;9.272;2023-06-01T09:27:23;25.10;61.20
44767;DHT22;30487;48.716;9.272;2023-06-01T09:29:58;25.50;60.80
44767;DHT22;30487;48.716;9.272;2023-06-01T09:32:27;25.60;61.60
44767;DHT22;30487;48.716;9.272;2023-06-01T09:34:53;25.80;60.80
44767;DHT22;30487;48.716;9.272;2023-06-01T09:37:20;26.00;59.80
44767;DHT22;30487;48.716;9.272;2023-06-01T09:39:46;26.10;59.60
44767;DHT22;30487;48.716;9.272;2023-06-01T09:42:11;26.20;59.00
44767;DHT22;30487;48.716;9.272;2023-06-01T09:44:40;26.20;58.30
44767;DHT22;30487;48.716;9.272;2023-06-01T09:47:07;26.20;59.40
44767;DHT22;30487;48.716;9.272;2023-06-01T09:49:42;26.30;58.70
44767;DHT22;30487;48.716;9.272;2023-06-01T09:52:09;26.20;57.80
44767;DHT22;30487;48.716;9.272;2023-06-01T09:54:44;26.20;58.10
44767;DHT22;30487;48.716;9.272;2023-06-01T09:57:10;26.30;57.80
44767;DHT22;30487;48.716;9.272;2023-06-01T09:59:43;26.30;58.60
44767;DHT22;30487;48.716;9.272;2023-06-01T10:02:13;26.40;58.30
44767;DHT22;30487;48.716;9.272;2023-06-01T10:04:40;26.40;58.30
44767;DHT22;30487;48.716;9.272;2023-06-01T10:07:08;26.40;58.50
44767;DHT22;30487;48.716;9.272;2023-06-01T10:09:35;26.40;58.90
44767;DHT22;30487;48.716;9.272;2023-06-01T10:12:04;26.60;58.70
44767;DHT22;30487;48.716;9.272;2023-06-01T10:14:30;26.70;57.40
44767;DHT22;30487;48.716;9.272;2023-06-01T10:16:57;26.70;57.10
44767;DHT22;30487;48.716;9.272;2023-06-01T10:19:23;26.70;58.00
44767;DHT22;30487;48.716;9.272;2023-06-01T10:21:49;26.90;57.70
44767;DHT22;30487;48.716;9.272;2023-06-01T10:24:17;26.90;57.80
44767;DHT22;30487;48.716;9.272;2023-06-01T10:29:28;27.20;54.40
44767;DHT22;30487;48.716;9.272;2023-06-01T10:31:54;27.20;55.30
44767;DHT22;30487;48.716;9.272;2023-06-01T10:34:41;27.40;55.50
44767;DHT22;30487;48.716;9.272;2023-06-01T10:39:34;27.70;56.10
44767;DHT22;30487;48.716;9.272;2023-06-01T10:44:49;27.90;54.30
44767;DHT22;30487;48.716;9.272;2023-06-01T10:52:36;27.90;55.40
44767;DHT22;30487;48.716;9.272;2023-06-01T10:57:32;27.80;55.50
44767;DHT22;30487;48.716;9.272;2023-06-01T11:00:20;27.90;56.20
44767;DHT22;30487;48.716;9.272;2023-06-01T11:05:48;28.20;55.40
44767;DHT22;30487;48.716;9.272;2023-06-01T11:19:04;28.10;54.10
44767;DHT22;30487;48.716;9.272;2023-06-01T11:21:35;28.40;54.40
44767;DHT22;30487;48.716;9.272;2023-06-01T11:24:29;28.30;54.90
44767;DHT22;30487;48.716;9.272;2023-06-01T11:26:51;28.50;55.30
44767;DHT22;30487;48.716;9.272;2023-06-01T11:29:23;28.50;53.10
44767;DHT22;30487;48.716;9.272;2023-06-01T11:31:49;28.70;52.30
44767;DHT22;30487;48.716;9.272;2023-06-01T11:34:18;28.60;52.50
44767;DHT22;30487;48.716;9.272;2023-06-01T11:36:48;28.60;53.90
44767;DHT22;30487;48.716;9.272;2023-06-01T11:39:18;28.70;54.30
44767;DHT22;30487;48.716;9.272;2023-06-01T11:41:47;28.90;54.10
44767;DHT22;30487;48.716;9.272;2023-06-01T11:44:12;29.00;54.10
44767;DHT22;30487;48.716;9.272;2023-06-01T11:46:50;29.00;53.40
44767;DHT22;30487;48.716;9.272;2023-06-01T11:49:16;29.30;53.00
44767;DHT22;30487;48.716;9.272;2023-06-01T11:51:41;29.40;52.70
44767;DHT22;30487;48.716;9.272;2023-06-01T11:54:10;29.30;52.30
44767;DHT22;30487;48.716;9.272;2023-06-01T11:56:36;29.40;52.50
44767;DHT22;30487;48.716;9.272;2023-06-01T11:59:05;29.50;52.80
44767;DHT22;30487;48.716;9.272;2023-06-01T12:01:34;29.60;52.00
44767;DHT22;30487;48.716;9.272;2023-06-01T12:04:02;29.70;51.70
44767;DHT22;30487;48.716;9.272;2023-06-01T12:06:29;29.70;51.70
44767;DHT22;30487;48.716;9.272;2023-06-01T12:08:57;29.80;51.40
44767;DHT22;30487;48.716;9.272;2023-06-01T12:11:26;29.90;52.40
44767;DHT22;30487;48.716;9.272;2023-06-01T12:13:54;30.20;52.00
44767;DHT22;30487;48.716;9.272;2023-06-01T12:16:21;30.30;50.30
44767;DHT22;30487;48.716;9.272;2023-06-01T12:18:46;30.20;51.70
44767;DHT22;30487;48.716;9.272;2023-06-01T12:21:12;30.30;52.30
44767;DHT22;30487;48.716;9.272;2023-06-01T12:23:38;30.40;51.60
44767;DHT22;30487;48.716;9.272;2023-06-01T12:26:04;30.60;51.70
44767;DHT22;30487;48.716;9.272;2023-06-01T12:28:47;30.80;52.10
44767;DHT22;30487;48.716;9.272;2023-06-01T12:31:15;30.90;51.70
44767;DHT22;30487;48.716;9.272;2023-06-01T12:33:42;30.90;52.20
44767;DHT22;30487;48.716;9.272;2023-06-01T12:36:10;31.20;51.90
44767;DHT22;30487;48.716;9.272;2023-06-01T12:38:51;31.30;52.60
44767;DHT22;30487;48.716;9.272;2023-06-01T12:41:17;31.30;51.60
44767;DHT22;30487;48.716;9.272;2023-06-01T12:43:47;30.80;50.30
44767;DHT22;30487;48.716;9.272;2023-06-01T12:46:22;31.00;50.80
44767;DHT22;30487;48.716;9.272;2023-06-01T12:48:49;31.50;51.20
44767;DHT22;30487;48.716;9.272;2023-06-01T12:51:16;31.80;50.50
44767;DHT22;30487;48.716;9.272;2023-06-01T12:53:41;32.20;50.20
44767;DHT22;30487;48.716;9.272;2023-06-01T12:56:11;32.00;50.50
44767;DHT22;30487;48.716;9.272;2023-06-01T12:58:38;31.80;49.80
44767;DHT22;30487;48.716;9.272;2023-06-01T13:01:04;32.20;50.30
44767;DHT22;30487;48.716;9.272;2023-06-01T13:03:30;32.40;49.90
44767;DHT22;30487;48.716;9.272;2023-06-01T13:05:56;32.40;49.50
44767;DHT22;30487;48.716;9.272;2023-06-01T13:08:22;32.60;49.90
44767;DHT22;30487;48.716;9.272;2023-06-01T13:10:48;32.20;48.90
44767;DHT22;30487;48.716;9.272;2023-06-01T13:13:14;33.00;49.30
44767;DHT22;30487;48.716;9.272;2023-06-01T13:15:44;34.00;49.80
44767;DHT22;30487;48.716;9.272;2023-06-01T13:18:10;34.30;48.30
44767;DHT22;30487;48.716;9.272;2023-06-01T13:20:37;34.40;48.60
44767;DHT22;30487;48.716;9.272;2023-06-01T13:23:04;34.40;49.40
44767;DHT22;30487;48.716;9.272;2023-06-01T13:25:31;33.90;48.00
44767;DHT22;30487;48.716;9.272;2023-06-01T13:27:56;33.00;48.40
44767;DHT22;30487;48.716;9.272;2023-06-01T13:30:22;32.20;49.10
44767;DHT22;30487;48.716;9.272;2023-06-01T13:32:48;31.90;49.10
44767;DHT22;30487;48.716;9.272;2023-06-01T13:35:14;31.60;49.90
44767;DHT22;30487;48.716;9.272;2023-06-01T13:37:40;31.40;50.10
44767;DHT22;30487;48.716;9.272;2023-06-01T13:40:06;31.00;49.00
44767;DHT22;30487;48.716;9.272;2023-06-01T13:42:32;30.80;50.00
44767;DHT22;30487;48.716;9.272;2023-06-01T13:44:58;30.40;49.60
44767;DHT22;30487;48.716;9.272;2023-06-01T13:47:24;29.80;49.60
44767;DHT22;30487;48.716;9.272;2023-06-01T13:49:50;29.40;50.60
44767;DHT22;30487;48.716;9.272;2023-06-01T13:52:16;29.20;51.60
44767;DHT22;30487;48.716;9.272;2023-06-01T13:54:42;29.00;50.60
44767;DHT22;30487;48.716;9.272;2023-06-01T13:57:09;29.10;51.20
44767;DHT22;30487;48.716;9.272;2023-06-01T13:59:35;29.00;50.60
44767;DHT22;30487;48.716;9.272;2023-06-01T14:02:02;29.20;51.10
44767;DHT22;30487;48.716;9.272;2023-06-01T14:04:28;29.30;51.60
44767;DHT22;30487;48.716;9.272;2023-06-01T14:06:54;29.40;52.10
44767;DHT22;30487;48.716;9.272;2023-06-01T14:09:21;29.60;52.50
44767;DHT22;30487;48.716;9.272;2023-06-01T14:11:47;29.70;51.10
44767;DHT22;30487;48.716;9.272;2023-06-01T14:14:13;29.80;51.60
44767;DHT22;30487;48.716;9.272;2023-06-01T14:16:39;29.90;52.10
44767;DHT22;30487;48.716;9.272;2023-06-01T14:19:04;29.90;52.30
44767;DHT22;30487;48.716;9.272;2023-06-01T14:21:30;29.90;51.50
44767;DHT22;30487;48.716;9.272;2023-06-01T14:23:57;29.90;51.30
44767;DHT22;30487;48.716;9.272;2023-06-01T14:26:23;29.90;52.10
44767;DHT22;30487;48.716;9.272;2023-06-01T14:28:49;30.00;51.70
44767;DHT22;30487;48.716;9.272;2023-06-01T14:31:15;29.90;51.00
44767;DHT22;30487;48.716;9.272;2023-06-01T14:33:40;29.80;50.80
44767;DHT22;30487;48.716;9.272;2023-06-01T14:36:06;29.70;51.10
44767;DHT22;30487;48.716;9.272;2023-06-01T14:38:32;29.60;50.80
44767;DHT22;30487;48.716;9.272;2023-06-01T14:40:57;29.70;51.90
44767;DHT22;30487;48.716;9.272;2023-06-01T14:43:23;29.60;50.50
44767;DHT22;30487;48.716;9.272;2023-06-01T14:45:48;29.70;51.20
44767;DHT22;30487;48.716;9.272;2023-06-01T14:48:14;29.80;50.50
44767;DHT22;30487;48.716;9.272;2023-06-01T14:50:40;29.70;51.30
44767;DHT22;30487;48.716;9.272;2023-06-01T14:53:05;29.70;51.50
44767;DHT22;30487;48.716;9.272;2023-06-01T14:55:32;29.60;51.20
44767;DHT22;30487;48.716;9.272;2023-06-01T14:57:57;29.70;51.70
44767;DHT22;30487;48.716;9.272;2023-06-01T15:00:23;29.80;51.90
44767;DHT22;30487;48.716;9.272;2023-06-01T15:02:49;29.80;51.60
44767;DHT22;30487;48.716;9.272;2023-06-01T15:05:15;29.80;50.70
44767;DHT22;30487;48.716;9.272;2023-06-01T15:07:41;29.70;50.30
44767;DHT22;30487;48.716;9.272;2023-06-01T15:10:07;29.60;50.20
44767;DHT22;30487;48.716;9.272;2023-06-01T15:12:33;29.60;50.70
44767;DHT22;30487;48.716;9.272;2023-06-01T15:14:58;29.60;51.10
44767;DHT22;30487;48.716;9.272;2023-06-01T15:17:24;29.70;50.80
44767;DHT22;30487;48.716;9.272;2023-06-01T15:19:49;29.60;50.10
44767;DHT22;30487;48.716;9.272;2023-06-01T15:22:15;29.70;50.40
44767;DHT22;30487;48.716;9.272;2023-06-01T15:24:41;29.60;49.40
44767;DHT22;30487;48.716;9.272;2023-06-01T15:27:07;29.50;49.30
44767;DHT22;30487;48.716;9.272;2023-06-01T15:29:33;29.40;49.90
44767;DHT22;30487;48.716;9.272;2023-06-01T15:31:59;29.10;51.00
44767;DHT22;30487;48.716;9.272;2023-06-01T15:34:25;29.10;50.90
44767;DHT22;30487;48.716;9.272;2023-06-01T15:36:50;29.20;50.30
44767;DHT22;30487;48.716;9.272;2023-06-01T15:39:16;29.30;50.30
44767;DHT22;30487;48.716;9.272;2023-06-01T15:41:42;29.60;50.70
44767;DHT22;30487;48.716;9.272;2023-06-01T15:44:08;30.60;49.60
44767;DHT22;30487;48.716;9.272;2023-06-01T15:46:33;31.40;48.60
44767;DHT22;30487;48.716;9.272;2023-06-01T15:48:59;32.10;48.30
44767;DHT22;30487;48.716;9.272;2023-06-01T15:51:26;32.50;48.40
44767;DHT22;30487;48.716;9.272;2023-06-01T15:53:51;32.70;47.30
44767;DHT22;30487;48.716;9.272;2023-06-01T15:56:17;32.80;47.50
44767;DHT22;30487;48.716;9.272;2023-06-01T15:58:43;32.90;46.50
44767;DHT22;30487;48.716;9.272;2023-06-01T16:01:09;32.90;46.30
44767;DHT22;30487;48.716;9.272;2023-06-01T16:03:34;32.60;46.60
44767;DHT22;30487;48.716;9.272;2023-06-01T16:06:00;32.70;46.40
44767;DHT22;30487;48.716;9.272;2023-06-01T16:08:26;33.10;46.30
44767;DHT22;30487;48.716;9.272;2023-06-01T16:10:52;34.30;45.20
44767;DHT22;30487;48.716;9.272;2023-06-01T16:13:18;35.80;44.70